sensor_id;sensor_type;location;lat;lon;timestamp;pressure;altitude;pressure_sealevel;temperature;humidity
52719;BME280;38616;42.140;24.760;2024-02-15T00:02:02;99936.44;;;9.24;nan
52719;BME280;38616;42.140;24.760;2024-02-15T00:04:28;99938.28;;;9.13;nan
52719;BME280;38616;42.140;24.760;2024-02-15T00:06:54;99937.50;;;9.23;nan
52719;BME280;38616;42.140;24.760;2024-02-15T00:09:22;99937.72;;;9.11;nan
52719;BME280;38616;42.140;24.760;2024-02-15T00:11:48;99945.53;;;9.08;nan
52719;BME280;38616;42.140;24.760;2024-02-15T00:14:13;99939.91;;;9.14;nan
52719;BME280;38616;42.140;24.760;2024-02-15T00:16:41;99943.84;;;8.96;nan
52719;BME280;38616;42.140;24.760;2024-02-15T00:19:06;99930.50;;;8.84;nan
52719;BME280;38616;42.140;24.760;2024-02-15T00:21:32;99939.00;;;9.04;nan
52719;BME280;38616;42.140;24.760;2024-02-15T00:23:58;99938.97;;;8.98;nan
52719;BME280;38616;42.140;24.760;2024-02-15T00:26:25;99941.13;;;8.96;nan
52719;BME280;38616;42.140;24.760;2024-02-15T00:28:50;99932.94;;;8.86;nan
52719;BME280;38616;42.140;24.760;2024-02-15T00:31:16;99931.94;;;8.97;nan
52719;BME280;38616;42.140;24.760;2024-02-15T00:33:42;99926.81;;;9.01;nan
52719;BME280;38616;42.140;24.760;2024-02-15T00:36:08;99939.66;;;8.78;nan
52719;BME280;38616;42.140;24.760;2024-02-15T00:38:33;99936.53;;;8.97;nan
52719;BME280;38616;42.140;24.760;2024-02-15T00:41:00;99944.16;;;9.00;nan
52719;BME280;38616;42.140;24.760;2024-02-15T00:43:28;99941.28;;;9.22;nan
52719;BME280;38616;42.140;24.760;2024-02-15T00:45:54;99931.28;;;9.28;nan
52719;BME280;38616;42.140;24.760;2024-02-15T00:48:19;99931.84;;;8.82;nan
52719;BME280;38616;42.140;24.760;2024-02-15T00:50:45;99934.28;;;8.83;nan
52719;BME280;38616;42.140;24.760;2024-02-15T00:53:11;99936.34;;;8.71;nan
52719;BME280;38616;42.140;24.760;2024-02-15T00:55:36;99937.09;;;8.61;nan
52719;BME280;38616;42.140;24.760;2024-02-15T00:58:02;99931.38;;;8.57;nan
52719;BME280;38616;42.140;24.760;2024-02-15T01:00:28;99935.56;;;8.70;nan
52719;BME280;38616;42.140;24.760;2024-02-15T01:02:56;99933.00;;;8.96;nan
52719;BME280;38616;42.140;24.760;2024-02-15T01:05:23;99920.56;;;9.00;nan
52719;BME280;38616;42.140;24.760;2024-02-15T01:07:49;99939.38;;;9.18;nan
52719;BME280;38616;42.140;24.760;2024-02-15T01:10:15;99928.72;;;9.06;nan
52719;BME280;38616;42.140;24.760;2024-02-15T01:12:41;99933.94;;;8.69;nan
52719;BME280;38616;42.140;24.760;2024-02-15T01:15:06;99930.41;;;8.74;nan
52719;BME280;38616;42.140;24.760;2024-02-15T01:17:32;99924.84;;;8.91;nan
52719;BME280;38616;42.140;24.760;2024-02-15T01:19:57;99932.03;;;8.70;nan
52719;BME280;38616;42.140;24.760;2024-02-15T01:22:23;99934.41;;;8.61;nan
52719;BME280;38616;42.140;24.760;2024-02-15T01:24:53;99923.53;;;8.56;nan
52719;BME280;38616;42.140;24.760;2024-02-15T01:27:18;99920.09;;;8.38;nan
52719;BME280;38616;42.140;24.760;2024-02-15T01:29:44;99930.34;;;8.64;nan
52719;BME280;38616;42.140;24.760;2024-02-15T01:32:10;99932.81;;;8.65;nan
52719;BME280;38616;42.140;24.760;2024-02-15T01:34:36;99930.75;;;8.78;nan
52719;BME280;38616;42.140;24.760;2024-02-15T01:37:01;99926.50;;;8.97;nan
52719;BME280;38616;42.140;24.760;2024-02-15T01:39:27;99920.69;;;8.46;nan
52719;BME280;38616;42.140;24.760;2024-02-15T01:41:52;99931.25;;;8.47;nan
52719;BME280;38616;42.140;24.760;2024-02-15T01:44:21;99940.97;;;8.70;nan
52719;BME280;38616;42.140;24.760;2024-02-15T01:46:52;99939.78;;;8.56;nan
52719;BME280;38616;42.140;24.760;2024-02-15T01:49:21;99940.72;;;8.45;nan
52719;BME280;38616;42.140;24.760;2024-02-15T01:51:51;99951.50;;;8.39;nan
52719;BME280;38616;42.140;24.760;2024-02-15T01:54:18;99943.72;;;8.48;nan
52719;BME280;38616;42.140;24.760;2024-02-15T01:56:44;99942.59;;;8.44;nan
52719;BME280;38616;42.140;24.760;2024-02-15T01:59:12;99938.09;;;8.50;nan
52719;BME280;38616;42.140;24.760;2024-02-15T02:01:40;99940.69;;;8.39;nan
52719;BME280;38616;42.140;24.760;2024-02-15T02:04:06;99939.97;;;8.22;nan
52719;BME280;38616;42.140;24.760;2024-02-15T02:06:33;99940.28;;;7.98;nan
52719;BME280;38616;42.140;24.760;2024-02-15T02:08:58;99942.06;;;8.14;nan
52719;BME280;38616;42.140;24.760;2024-02-15T02:11:24;99941.16;;;8.31;nan
52719;BME280;38616;42.140;24.760;2024-02-15T02:13:50;99937.91;;;8.02;nan
52719;BME280;38616;42.140;24.760;2024-02-15T02:16:30;99947.53;;;7.92;nan
52719;BME280;38616;42.140;24.760;2024-02-15T02:18:58;99940.03;;;7.99;nan
52719;BME280;38616;42.140;24.760;2024-02-15T02:21:28;99952.38;;;7.90;nan
52719;BME280;38616;42.140;24.760;2024-02-15T02:23:56;99952.72;;;7.99;nan
52719;BME280;38616;42.140;24.760;2024-02-15T02:26:23;99951.09;;;7.98;nan
52719;BME280;38616;42.140;24.760;2024-02-15T02:28:49;99957.03;;;8.22;nan
52719;BME280;38616;42.140;24.760;2024-02-15T02:31:15;99955.38;;;8.16;nan
52719;BME280;38616;42.140;24.760;2024-02-15T02:33:41;99953.28;;;8.01;nan
52719;BME280;38616;42.140;24.760;2024-02-15T02:36:08;99963.25;;;7.95;nan
52719;BME280;38616;42.140;24.760;2024-02-15T02:38:35;99959.69;;;7.90;nan
52719;BME280;38616;42.140;24.760;2024-02-15T02:41:06;99963.25;;;7.95;nan
52719;BME280;38616;42.140;24.760;2024-02-15T02:43:32;99967.00;;;8.17;nan
52719;BME280;38616;42.140;24.760;2024-02-15T02:45:57;99974.38;;;7.99;nan
52719;BME280;38616;42.140;24.760;2024-02-15T02:48:23;99960.59;;;8.01;nan
52719;BME280;38616;42.140;24.760;2024-02-15T02:50:49;99964.03;;;8.18;nan
52719;BME280;38616;42.140;24.760;2024-02-15T02:53:15;99962.13;;;8.19;nan
52719;BME280;38616;42.140;24.760;2024-02-15T02:55:41;99970.88;;;7.98;nan
52719;BME280;38616;42.140;24.760;2024-02-15T02:58:06;99974.53;;;7.65;nan
52719;BME280;38616;42.140;24.760;2024-02-15T03:00:33;99976.38;;;7.81;nan
52719;BME280;38616;42.140;24.760;2024-02-15T03:02:58;99964.69;;;8.03;nan
52719;BME280;38616;42.140;24.760;2024-02-15T03:05:25;99965.16;;;7.95;nan
52719;BME280;38616;42.140;24.760;2024-02-15T03:07:51;99969.47;;;7.96;nan
52719;BME280;38616;42.140;24.760;2024-02-15T03:10:17;99974.78;;;7.86;nan
52719;BME280;38616;42.140;24.760;2024-02-15T03:12:44;99969.69;;;7.67;nan
52719;BME280;38616;42.140;24.760;2024-02-15T03:15:12;99981.53;;;7.61;nan
52719;BME280;38616;42.140;24.760;2024-02-15T03:17:43;99970.06;;;7.76;nan
52719;BME280;38616;42.140;24.760;2024-02-15T03:20:11;99972.78;;;8.03;nan
52719;BME280;38616;42.140;24.760;2024-02-15T03:22:58;99977.19;;;7.60;nan
52719;BME280;38616;42.140;24.760;2024-02-15T03:25:25;99974.72;;;7.80;nan
52719;BME280;38616;42.140;24.760;2024-02-15T03:27:57;99979.94;;;7.65;nan
52719;BME280;38616;42.140;24.760;2024-02-15T03:30:26;99985.22;;;7.54;nan
52719;BME280;38616;42.140;24.760;2024-02-15T03:32:55;99974.66;;;7.53;nan
52719;BME280;38616;42.140;24.760;2024-02-15T03:35:21;99974.03;;;7.68;nan
52719;BME280;38616;42.140;24.760;2024-02-15T03:37:48;99972.56;;;7.60;nan
52719;BME280;38616;42.140;24.760;2024-02-15T03:40:16;99967.69;;;7.79;nan
52719;BME280;38616;42.140;24.760;2024-02-15T03:42:44;99972.47;;;7.72;nan
52719;BME280;38616;42.140;24.760;2024-02-15T03:45:09;99978.81;;;7.61;nan
52719;BME280;38616;42.140;24.760;2024-02-15T03:47:39;99977.03;;;7.72;nan
52719;BME280;38616;42.140;24.760;2024-02-15T03:50:06;99983.31;;;7.55;nan
52719;BME280;38616;42.140;24.760;2024-02-15T03:52:33;99981.09;;;7.69;nan
52719;BME280;38616;42.140;24.760;2024-02-15T03:54:59;99978.41;;;7.96;nan
52719;BME280;38616;42.140;24.760;2024-02-15T03:57:25;99975.66;;;7.91;nan
52719;BME280;38616;42.140;24.760;2024-02-15T03:59:51;99987.69;;;7.78;nan
52719;BME280;38616;42.140;24.760;2024-02-15T04:02:18;99988.69;;;7.94;nan
52719;BME280;38616;42.140;24.760;2024-02-15T04:04:43;99976.63;;;8.07;nan
52719;BME280;38616;42.140;24.760;2024-02-15T04:07:15;99980.25;;;7.91;nan
52719;BME280;38616;42.140;24.760;2024-02-15T04:09:44;99983.44;;;7.65;nan
52719;BME280;38616;42.140;24.760;2024-02-15T04:12:10;99992.06;;;7.62;nan
52719;BME280;38616;42.140;24.760;2024-02-15T04:14:37;99991.25;;;7.62;nan
52719;BME280;38616;42.140;24.760;2024-02-15T04:17:04;99997.88;;;7.93;nan
52719;BME280;38616;42.140;24.760;2024-02-15T04:19:31;99988.94;;;7.71;nan
52719;BME280;38616;42.140;24.760;2024-02-15T04:21:56;99996.94;;;7.82;nan
52719;BME280;38616;42.140;24.760;2024-02-15T04:24:22;99995.41;;;7.47;nan
52719;BME280;38616;42.140;24.760;2024-02-15T04:26:48;99989.06;;;7.59;nan
52719;BME280;38616;42.140;24.760;2024-02-15T04:29:17;99983.22;;;7.67;nan
52719;BME280;38616;42.140;24.760;2024-02-15T04:31:46;99993.47;;;7.87;nan
52719;BME280;38616;42.140;24.760;2024-02-15T04:34:17;99988.97;;;7.98;nan
52719;BME280;38616;42.140;24.760;2024-02-15T04:36:46;99994.72;;;8.02;nan
52719;BME280;38616;42.140;24.760;2024-02-15T04:39:15;100001.50;;;8.04;nan
52719;BME280;38616;42.140;24.760;2024-02-15T04:41:52;99997.97;;;7.59;nan
52719;BME280;38616;42.140;24.760;2024-02-15T04:44:17;100002.50;;;7.76;nan
52719;BME280;38616;42.140;24.760;2024-02-15T04:46:48;99995.28;;;8.04;nan
52719;BME280;38616;42.140;24.760;2024-02-15T04:49:17;99993.97;;;7.84;nan
52719;BME280;38616;42.140;24.760;2024-02-15T04:51:44;100004.28;;;7.87;nan
52719;BME280;38616;42.140;24.760;2024-02-15T04:54:10;100005.22;;;7.76;nan
52719;BME280;38616;42.140;24.760;2024-02-15T04:56:40;100000.94;;;7.58;nan
52719;BME280;38616;42.140;24.760;2024-02-15T04:59:09;100004.91;;;7.94;nan
52719;BME280;38616;42.140;24.760;2024-02-15T05:01:40;100009.25;;;7.73;nan
52719;BME280;38616;42.140;24.760;2024-02-15T05:04:08;100007.78;;;7.65;nan
52719;BME280;38616;42.140;24.760;2024-02-15T05:06:35;100008.47;;;8.00;nan
52719;BME280;38616;42.140;24.760;2024-02-15T05:09:02;100009.81;;;7.97;nan
52719;BME280;38616;42.140;24.760;2024-02-15T05:11:37;100008.03;;;8.08;nan
52719;BME280;38616;42.140;24.760;2024-02-15T05:14:03;100010.50;;;8.10;nan
52719;BME280;38616;42.140;24.760;2024-02-15T05:16:35;99992.56;;;8.31;nan
52719;BME280;38616;42.140;24.760;2024-02-15T05:19:11;100004.53;;;8.08;nan
52719;BME280;38616;42.140;24.760;2024-02-15T05:21:36;100014.34;;;8.14;nan
52719;BME280;38616;42.140;24.760;2024-02-15T05:24:04;100024.31;;;8.13;nan
52719;BME280;38616;42.140;24.760;2024-02-15T05:26:29;100014.56;;;8.12;nan
52719;BME280;38616;42.140;24.760;2024-02-15T05:28:55;100021.63;;;8.13;nan
52719;BME280;38616;42.140;24.760;2024-02-15T05:31:21;100029.63;;;8.25;nan
52719;BME280;38616;42.140;24.760;2024-02-15T05:33:51;100023.41;;;8.03;nan
52719;BME280;38616;42.140;24.760;2024-02-15T05:36:18;100029.84;;;8.24;nan
52719;BME280;38616;42.140;24.760;2024-02-15T05:38:52;100033.34;;;8.19;nan
52719;BME280;38616;42.140;24.760;2024-02-15T05:41:19;100051.00;;;8.27;nan
52719;BME280;38616;42.140;24.760;2024-02-15T05:43:46;100040.00;;;7.89;nan
52719;BME280;38616;42.140;24.760;2024-02-15T05:46:14;100037.84;;;8.13;nan
52719;BME280;38616;42.140;24.760;2024-02-15T05:48:39;100041.31;;;8.31;nan
52719;BME280;38616;42.140;24.760;2024-02-15T05:51:06;100049.69;;;8.07;nan
52719;BME280;38616;42.140;24.760;2024-02-15T05:53:32;100044.69;;;7.94;nan
52719;BME280;38616;42.140;24.760;2024-02-15T05:56:05;100043.28;;;8.13;nan
52719;BME280;38616;42.140;24.760;2024-02-15T05:58:32;100045.41;;;7.89;nan
52719;BME280;38616;42.140;24.760;2024-02-15T06:01:02;100050.88;;;8.17;nan
52719;BME280;38616;42.140;24.760;2024-02-15T06:03:34;100058.81;;;8.23;nan
52719;BME280;38616;42.140;24.760;2024-02-15T06:06:04;100054.09;;;8.13;nan
52719;BME280;38616;42.140;24.760;2024-02-15T06:08:36;100054.03;;;8.08;nan
52719;BME280;38616;42.140;24.760;2024-02-15T06:11:02;100062.28;;;7.96;nan
52719;BME280;38616;42.140;24.760;2024-02-15T06:13:27;100067.06;;;8.34;nan
52719;BME280;38616;42.140;24.760;2024-02-15T06:15:53;100068.69;;;8.12;nan
52719;BME280;38616;42.140;24.760;2024-02-15T06:18:24;100069.25;;;8.14;nan
52719;BME280;38616;42.140;24.760;2024-02-15T06:20:50;100063.28;;;8.35;nan
52719;BME280;38616;42.140;24.760;2024-02-15T06:23:17;100076.56;;;8.36;nan
52719;BME280;38616;42.140;24.760;2024-02-15T06:25:43;100083.47;;;8.27;nan
52719;BME280;38616;42.140;24.760;2024-02-15T06:28:09;100073.38;;;8.17;nan
52719;BME280;38616;42.140;24.760;2024-02-15T06:30:45;100080.53;;;8.06;nan
52719;BME280;38616;42.140;24.760;2024-02-15T06:33:29;100073.56;;;8.33;nan
52719;BME280;38616;42.140;24.760;2024-02-15T06:36:16;100080.03;;;8.54;nan
52719;BME280;38616;42.140;24.760;2024-02-15T06:39:00;100081.97;;;8.58;nan
52719;BME280;38616;42.140;24.760;2024-02-15T06:41:43;100091.72;;;8.37;nan
52719;BME280;38616;42.140;24.760;2024-02-15T06:44:09;100093.63;;;7.92;nan
52719;BME280;38616;42.140;24.760;2024-02-15T06:46:35;100098.03;;;7.98;nan
52719;BME280;38616;42.140;24.760;2024-02-15T06:49:00;100096.88;;;7.94;nan
52719;BME280;38616;42.140;24.760;2024-02-15T06:51:26;100094.81;;;8.02;nan
52719;BME280;38616;42.140;24.760;2024-02-15T06:53:51;100096.88;;;7.94;nan
52719;BME280;38616;42.140;24.760;2024-02-15T06:56:20;100102.56;;;7.93;nan
52719;BME280;38616;42.140;24.760;2024-02-15T06:58:46;100096.81;;;8.11;nan
52719;BME280;38616;42.140;24.760;2024-02-15T07:01:13;100098.41;;;8.52;nan
52719;BME280;38616;42.140;24.760;2024-02-15T07:03:45;100098.25;;;8.91;nan
52719;BME280;38616;42.140;24.760;2024-02-15T07:06:11;100094.91;;;8.79;nan
52719;BME280;38616;42.140;24.760;2024-02-15T07:08:39;100110.50;;;8.66;nan
52719;BME280;38616;42.140;24.760;2024-02-15T07:11:06;100111.63;;;8.70;nan
52719;BME280;38616;42.140;24.760;2024-02-15T07:13:35;100103.00;;;8.29;nan
52719;BME280;38616;42.140;24.760;2024-02-15T07:16:02;100110.38;;;8.56;nan
52719;BME280;38616;42.140;24.760;2024-02-15T07:18:28;100097.00;;;8.71;nan
52719;BME280;38616;42.140;24.760;2024-02-15T07:20:54;100100.31;;;8.79;nan
52719;BME280;38616;42.140;24.760;2024-02-15T07:23:19;100106.16;;;8.65;nan
52719;BME280;38616;42.140;24.760;2024-02-15T07:25:46;100109.09;;;8.41;nan
52719;BME280;38616;42.140;24.760;2024-02-15T07:28:13;100121.72;;;8.53;nan
52719;BME280;38616;42.140;24.760;2024-02-15T07:30:39;100107.63;;;8.51;nan
52719;BME280;38616;42.140;24.760;2024-02-15T07:33:04;100115.09;;;8.43;nan
52719;BME280;38616;42.140;24.760;2024-02-15T07:35:34;100113.19;;;8.66;nan
52719;BME280;38616;42.140;24.760;2024-02-15T07:38:00;100109.31;;;8.84;nan
52719;BME280;38616;42.140;24.760;2024-02-15T07:40:26;100108.69;;;8.50;nan
52719;BME280;38616;42.140;24.760;2024-02-15T07:42:56;100117.22;;;8.64;nan
52719;BME280;38616;42.140;24.760;2024-02-15T07:45:25;100100.56;;;8.77;nan
52719;BME280;38616;42.140;24.760;2024-02-15T07:47:50;100088.34;;;9.02;nan
52719;BME280;38616;42.140;24.760;2024-02-15T07:50:17;100099.47;;;9.06;nan
52719;BME280;38616;42.140;24.760;2024-02-15T07:52:46;100096.94;;;8.94;nan
52719;BME280;38616;42.140;24.760;2024-02-15T07:55:13;100103.44;;;8.93;nan
52719;BME280;38616;42.140;24.760;2024-02-15T07:57:38;100109.03;;;8.58;nan
52719;BME280;38616;42.140;24.760;2024-02-15T08:00:05;100103.53;;;9.03;nan
52719;BME280;38616;42.140;24.760;2024-02-15T08:02:37;100107.94;;;8.82;nan
52719;BME280;38616;42.140;24.760;2024-02-15T08:05:06;100109.19;;;8.74;nan
52719;BME280;38616;42.140;24.760;2024-02-15T08:07:42;100114.69;;;8.79;nan
52719;BME280;38616;42.140;24.760;2024-02-15T08:10:08;100108.56;;;8.94;nan
52719;BME280;38616;42.140;24.760;2024-02-15T08:12:39;100104.88;;;9.06;nan
52719;BME280;38616;42.140;24.760;2024-02-15T08:15:05;100112.81;;;9.12;nan
52719;BME280;38616;42.140;24.760;2024-02-15T08:17:43;100104.47;;;9.19;nan
52719;BME280;38616;42.140;24.760;2024-02-15T08:20:11;100105.91;;;9.32;nan
52719;BME280;38616;42.140;24.760;2024-02-15T08:22:38;100128.63;;;8.66;nan
52719;BME280;38616;42.140;24.760;2024-02-15T08:25:10;100110.88;;;8.53;nan
52719;BME280;38616;42.140;24.760;2024-02-15T08:27:40;100109.13;;;8.96;nan
52719;BME280;38616;42.140;24.760;2024-02-15T08:30:13;100114.50;;;9.19;nan
52719;BME280;38616;42.140;24.760;2024-02-15T08:32:39;100111.50;;;8.87;nan
52719;BME280;38616;42.140;24.760;2024-02-15T08:35:07;100109.47;;;9.00;nan
52719;BME280;38616;42.140;24.760;2024-02-15T08:37:33;100103.72;;;8.96;nan
52719;BME280;38616;42.140;24.760;2024-02-15T08:40:01;100106.66;;;9.22;nan
52719;BME280;38616;42.140;24.760;2024-02-15T08:42:27;100120.59;;;9.04;nan
52719;BME280;38616;42.140;24.760;2024-02-15T08:44:52;100106.09;;;8.87;nan
52719;BME280;38616;42.140;24.760;2024-02-15T08:47:19;100105.81;;;9.16;nan
52719;BME280;38616;42.140;24.760;2024-02-15T08:49:44;100114.88;;;9.32;nan
52719;BME280;38616;42.140;24.760;2024-02-15T08:52:10;100117.63;;;9.38;nan
52719;BME280;38616;42.140;24.760;2024-02-15T08:54:36;100103.72;;;9.67;nan
52719;BME280;38616;42.140;24.760;2024-02-15T08:57:04;100109.22;;;9.39;nan
52719;BME280;38616;42.140;24.760;2024-02-15T08:59:30;100100.25;;;9.34;nan
52719;BME280;38616;42.140;24.760;2024-02-15T09:01:56;100101.22;;;9.60;nan
52719;BME280;38616;42.140;24.760;2024-02-15T09:04:22;100100.88;;;9.89;nan
52719;BME280;38616;42.140;24.760;2024-02-15T09:06:50;100102.91;;;10.19;nan
52719;BME280;38616;42.140;24.760;2024-02-15T09:09:16;100108.81;;;10.06;nan
52719;BME280;38616;42.140;24.760;2024-02-15T09:11:41;100101.50;;;9.58;nan
52719;BME280;38616;42.140;24.760;2024-02-15T09:14:07;100109.72;;;9.74;nan
52719;BME280;38616;42.140;24.760;2024-02-15T09:16:35;100096.25;;;9.89;nan
52719;BME280;38616;42.140;24.760;2024-02-15T09:19:01;100098.25;;;10.10;nan
52719;BME280;38616;42.140;24.760;2024-02-15T09:21:27;100101.03;;;9.67;nan
52719;BME280;38616;42.140;24.760;2024-02-15T09:23:54;100102.00;;;9.98;nan
52719;BME280;38616;42.140;24.760;2024-02-15T09:26:20;100093.63;;;10.10;nan
52719;BME280;38616;42.140;24.760;2024-02-15T09:28:45;100094.97;;;9.54;nan
52719;BME280;38616;42.140;24.760;2024-02-15T09:31:14;100096.16;;;9.74;nan
52719;BME280;38616;42.140;24.760;2024-02-15T09:33:40;100091.16;;;10.03;nan
52719;BME280;38616;42.140;24.760;2024-02-15T09:36:06;100077.78;;;10.50;nan
52719;BME280;38616;42.140;24.760;2024-02-15T09:38:31;100084.31;;;10.54;nan
52719;BME280;38616;42.140;24.760;2024-02-15T09:40:57;100075.59;;;9.88;nan
52719;BME280;38616;42.140;24.760;2024-02-15T09:43:23;100065.72;;;10.15;nan
52719;BME280;38616;42.140;24.760;2024-02-15T09:45:54;100076.31;;;10.22;nan
52719;BME280;38616;42.140;24.760;2024-02-15T09:48:23;100078.59;;;9.87;nan
52719;BME280;38616;42.140;24.760;2024-02-15T09:50:52;100068.00;;;9.85;nan
52719;BME280;38616;42.140;24.760;2024-02-15T09:53:22;100064.72;;;9.83;nan
52719;BME280;38616;42.140;24.760;2024-02-15T09:55:53;100051.84;;;10.16;nan
52719;BME280;38616;42.140;24.760;2024-02-15T09:58:19;100049.50;;;10.46;nan
52719;BME280;38616;42.140;24.760;2024-02-15T10:00:45;100050.06;;;10.53;nan
52719;BME280;38616;42.140;24.760;2024-02-15T10:03:14;100040.59;;;10.71;nan
52719;BME280;38616;42.140;24.760;2024-02-15T10:05:42;100050.66;;;10.76;nan
52719;BME280;38616;42.140;24.760;2024-02-15T10:08:07;100047.38;;;11.05;nan
52719;BME280;38616;42.140;24.760;2024-02-15T10:10:33;100036.53;;;10.79;nan
52719;BME280;38616;42.140;24.760;2024-02-15T10:13:00;100026.47;;;10.95;nan
52719;BME280;38616;42.140;24.760;2024-02-15T10:15:34;100037.06;;;11.07;nan
52719;BME280;38616;42.140;24.760;2024-02-15T10:18:08;100033.25;;;11.08;nan
52719;BME280;38616;42.140;24.760;2024-02-15T10:20:35;100024.00;;;11.09;nan
52719;BME280;38616;42.140;24.760;2024-02-15T10:25:35;100017.44;;;11.36;nan
52719;BME280;38616;42.140;24.760;2024-02-15T10:28:05;100020.16;;;11.31;nan
52719;BME280;38616;42.140;24.760;2024-02-15T10:30:37;100016.09;;;11.44;nan
52719;BME280;38616;42.140;24.760;2024-02-15T10:33:04;100010.38;;;11.35;nan
52719;BME280;38616;42.140;24.760;2024-02-15T10:35:31;100005.81;;;10.94;nan
52719;BME280;38616;42.140;24.760;2024-02-15T10:38:07;100004.13;;;11.34;nan
52719;BME280;38616;42.140;24.760;2024-02-15T10:40:33;99995.97;;;11.34;nan
52719;BME280;38616;42.140;24.760;2024-02-15T10:43:01;99995.69;;;11.31;nan
52719;BME280;38616;42.140;24.760;2024-02-15T10:45:28;99990.56;;;11.19;nan
52719;BME280;38616;42.140;24.760;2024-02-15T10:47:56;99999.16;;;11.52;nan
52719;BME280;38616;42.140;24.760;2024-02-15T10:50:23;99993.13;;;11.65;nan
52719;BME280;38616;42.140;24.760;2024-02-15T10:52:55;99985.91;;;11.30;nan
52719;BME280;38616;42.140;24.760;2024-02-15T10:58:46;99982.66;;;11.22;nan
52719;BME280;38616;42.140;24.760;2024-02-15T11:01:17;99981.25;;;11.46;nan
52719;BME280;38616;42.140;24.760;2024-02-15T11:03:59;99974.09;;;11.65;nan
52719;BME280;38616;42.140;24.760;2024-02-15T11:06:30;99970.41;;;11.35;nan
52719;BME280;38616;42.140;24.760;2024-02-15T11:08:57;99967.56;;;11.61;nan
52719;BME280;38616;42.140;24.760;2024-02-15T11:11:24;99971.59;;;11.79;nan
52719;BME280;38616;42.140;24.760;2024-02-15T11:14:23;99972.03;;;11.97;nan
52719;BME280;38616;42.140;24.760;2024-02-15T11:16:49;99965.25;;;12.00;nan
52719;BME280;38616;42.140;24.760;2024-02-15T11:22:14;99946.03;;;12.31;nan
52719;BME280;38616;42.140;24.760;2024-02-15T11:27:30;99948.94;;;12.00;nan
52719;BME280;38616;42.140;24.760;2024-02-15T11:29:58;99948.38;;;12.03;nan
52719;BME280;38616;42.140;24.760;2024-02-15T11:35:13;99930.84;;;12.19;nan
52719;BME280;38616;42.140;24.760;2024-02-15T11:40:19;99927.16;;;12.00;nan
52719;BME280;38616;42.140;24.760;2024-02-15T11:42:48;99926.84;;;11.96;nan
52719;BME280;38616;42.140;24.760;2024-02-15T11:45:15;99925.22;;;12.40;nan
52719;BME280;38616;42.140;24.760;2024-02-15T11:47:47;99921.22;;;12.62;nan
52719;BME280;38616;42.140;24.760;2024-02-15T11:50:14;99913.59;;;12.64;nan
52719;BME280;38616;42.140;24.760;2024-02-15T11:52:51;99927.06;;;12.79;nan
52719;BME280;38616;42.140;24.760;2024-02-15T11:55:22;99927.03;;;12.55;nan
52719;BME280;38616;42.140;24.760;2024-02-15T11:58:16;99923.72;;;12.58;nan
52719;BME280;38616;42.140;24.760;2024-02-15T12:00:47;99917.84;;;12.75;nan
52719;BME280;38616;42.140;24.760;2024-02-15T12:03:55;99912.34;;;12.51;nan
52719;BME280;38616;42.140;24.760;2024-02-15T12:06:38;99918.56;;;12.86;nan
52719;BME280;38616;42.140;24.760;2024-02-15T12:09:22;99906.69;;;13.01;nan
52719;BME280;38616;42.140;24.760;2024-02-15T12:12:09;99910.72;;;12.79;nan
52719;BME280;38616;42.140;24.760;2024-02-15T12:15:24;99912.16;;;13.01;nan
52719;BME280;38616;42.140;24.760;2024-02-15T12:18:15;99908.53;;;13.06;nan
52719;BME280;38616;42.140;24.760;2024-02-15T12:20:59;99906.22;;;12.94;nan
52719;BME280;38616;42.140;24.760;2024-02-15T12:23:28;99901.34;;;12.91;nan
52719;BME280;38616;42.140;24.760;2024-02-15T12:25:56;99901.03;;;12.92;nan
52719;BME280;38616;42.140;24.760;2024-02-15T12:28:22;99902.63;;;12.98;nan
52719;BME280;38616;42.140;24.760;2024-02-15T12:30:54;99906.50;;;12.63;nan
52719;BME280;38616;42.140;24.760;2024-02-15T12:33:20;99901.66;;;12.54;nan
52719;BME280;38616;42.140;24.760;2024-02-15T12:35:46;99901.66;;;12.84;nan
52719;BME280;38616;42.140;24.760;2024-02-15T12:38:12;99897.63;;;12.81;nan
52719;BME280;38616;42.140;24.760;2024-02-15T12:40:41;99892.84;;;12.92;nan
52719;BME280;38616;42.140;24.760;2024-02-15T12:43:08;99884.72;;;13.17;nan
52719;BME280;38616;42.140;24.760;2024-02-15T12:45:41;99891.53;;;13.38;nan
52719;BME280;38616;42.140;24.760;2024-02-15T12:48:08;99888.78;;;13.38;nan
52719;BME280;38616;42.140;24.760;2024-02-15T12:50:36;99886.03;;;13.43;nan
52719;BME280;38616;42.140;24.760;2024-02-15T12:53:02;99886.34;;;13.42;nan
52719;BME280;38616;42.140;24.760;2024-02-15T12:55:29;99889.44;;;13.06;nan
52719;BME280;38616;42.140;24.760;2024-02-15T12:58:00;99888.72;;;13.00;nan
52719;BME280;38616;42.140;24.760;2024-02-15T13:00:30;99889.66;;;12.85;nan
52719;BME280;38616;42.140;24.760;2024-02-15T13:03:02;99885.34;;;13.08;nan
52719;BME280;38616;42.140;24.760;2024-02-15T13:05:29;99885.66;;;13.26;nan
52719;BME280;38616;42.140;24.760;2024-02-15T13:07:56;99882.91;;;13.07;nan
52719;BME280;38616;42.140;24.760;2024-02-15T13:10:23;99881.31;;;13.00;nan
52719;BME280;38616;42.140;24.760;2024-02-15T13:12:52;99885.44;;;12.98;nan
52719;BME280;38616;42.140;24.760;2024-02-15T13:15:18;99885.91;;;13.29;nan
52719;BME280;38616;42.140;24.760;2024-02-15T13:17:49;99881.41;;;13.44;nan
52719;BME280;38616;42.140;24.760;2024-02-15T13:20:17;99879.28;;;13.60;nan
52719;BME280;38616;42.140;24.760;2024-02-15T13:22:46;99889.41;;;13.59;nan
52719;BME280;38616;42.140;24.760;2024-02-15T13:25:13;99884.22;;;13.77;nan
52719;BME280;38616;42.140;24.760;2024-02-15T13:27:42;99879.13;;;13.70;nan
52719;BME280;38616;42.140;24.760;2024-02-15T13:30:12;99880.25;;;13.69;nan
52719;BME280;38616;42.140;24.760;2024-02-15T13:32:40;99881.94;;;13.65;nan
52719;BME280;38616;42.140;24.760;2024-02-15T13:35:08;99874.25;;;13.48;nan
52719;BME280;38616;42.140;24.760;2024-02-15T13:37:43;99878.94;;;13.67;nan
52719;BME280;38616;42.140;24.760;2024-02-15T13:40:11;99879.34;;;13.55;nan